createdAt,value
2018-07-15T00:00:30.424Z,22.10
2018-07-15T00:09:35.495Z,22.00
2018-07-15T00:12:24.672Z,22.00
2018-07-15T00:15:28.225Z,22.00
2018-07-15T00:25:34.782Z,21.80
2018-07-15T00:28:05.582Z,21.70
2018-07-15T00:30:34.984Z,21.70
2018-07-15T00:33:04.640Z,21.70
2018-07-15T00:35:35.757Z,21.60
2018-07-15T00:38:28.149Z,21.60
2018-07-15T00:40:58.503Z,21.50
2018-07-15T00:43:28.852Z,21.50
2018-07-15T00:45:59.391Z,21.40
2018-07-15T00:48:50.092Z,21.40
2018-07-15T00:51:26.835Z,21.40
2018-07-15T00:53:59.021Z,21.40
2018-07-15T00:56:35.320Z,21.30
2018-07-15T00:59:08.063Z,21.30
2018-07-15T01:01:43.011Z,21.20
2018-07-15T01:04:13.445Z,21.20
2018-07-15T01:06:45.816Z,21.20
2018-07-15T01:09:31.207Z,21.10
2018-07-15T01:12:05.391Z,21.10
2018-07-15T01:14:39.944Z,21.10
2018-07-15T01:17:17.851Z,21.00
2018-07-15T01:19:52.462Z,21.00
2018-07-15T01:22:27.717Z,21.00
2018-07-15T01:24:58.032Z,20.90
2018-07-15T01:27:28.882Z,20.90
2018-07-15T01:30:02.111Z,20.90
2018-07-15T01:32:34.019Z,20.80
2018-07-15T01:35:07.933Z,20.70
2018-07-15T01:37:40.086Z,20.60
2018-07-15T01:40:33.706Z,20.60
2018-07-15T01:43:24.749Z,20.60
2018-07-15T01:45:57.519Z,20.60
2018-07-15T01:48:35.540Z,20.50
2018-07-15T01:51:05.322Z,20.50
2018-07-15T01:53:40.346Z,20.50
2018-07-15T01:56:16.859Z,20.50
2018-07-15T01:59:09.512Z,20.40
2018-07-15T02:01:41.483Z,20.40
2018-07-15T02:04:11.977Z,20.40
2018-07-15T02:06:41.306Z,20.40
2018-07-15T02:09:11.359Z,20.30
2018-07-15T02:11:43.888Z,20.30
2018-07-15T02:14:17.120Z,20.30
2018-07-15T02:16:49.863Z,20.30
2018-07-15T02:19:20.307Z,20.20
2018-07-15T02:22:03.902Z,20.20
2018-07-15T02:24:44.158Z,20.10
2018-07-15T02:27:20.965Z,20.10
2018-07-15T02:29:51.849Z,20.00
2018-07-15T02:32:24.809Z,20.00
2018-07-15T02:35:06.166Z,20.00
2018-07-15T02:37:38.390Z,20.00
2018-07-15T02:40:08.591Z,19.80
2018-07-15T02:42:38.712Z,19.70
2018-07-15T02:45:09.104Z,19.60
2018-07-15T02:47:39.825Z,19.70
2018-07-15T02:50:09.305Z,19.70
2018-07-15T02:52:47.822Z,19.70
2018-07-15T02:55:20.432Z,19.70
2018-07-15T02:57:50.839Z,19.80
2018-07-15T03:00:21.011Z,19.70
2018-07-15T03:02:50.643Z,19.70
2018-07-15T03:05:20.060Z,19.70
2018-07-15T03:07:50.014Z,19.60
2018-07-15T03:10:19.385Z,19.60
2018-07-15T03:12:49.080Z,19.60
2018-07-15T03:15:19.068Z,19.50
2018-07-15T03:17:51.939Z,19.50
2018-07-15T03:20:30.435Z,19.50
2018-07-15T03:23:01.048Z,19.50
2018-07-15T03:28:00.997Z,19.40
2018-07-15T03:30:31.894Z,19.40
2018-07-15T03:33:01.839Z,19.40
2018-07-15T03:35:31.960Z,19.40
2018-07-15T03:38:18.771Z,19.30
2018-07-15T03:40:48.220Z,19.30
2018-07-15T03:43:18.596Z,19.30
2018-07-15T03:45:54.835Z,19.30
2018-07-15T03:48:35.990Z,19.20
2018-07-15T03:53:46.740Z,19.20
2018-07-15T03:56:22.837Z,19.20
2018-07-15T03:58:53.780Z,19.30
2018-07-15T04:01:24.283Z,19.20
2018-07-15T04:03:54.528Z,19.20
2018-07-15T04:08:53.880Z,19.20
2018-07-15T04:11:25.738Z,19.20
2018-07-15T04:13:55.431Z,19.20
2018-07-15T04:16:27.234Z,19.20
2018-07-15T04:19:00.031Z,19.10
2018-07-15T04:21:29.756Z,19.00
2018-07-15T04:23:59.433Z,19.10
2018-07-15T04:26:30.356Z,19.00
2018-07-15T04:29:01.250Z,19.00
2018-07-15T04:31:31.582Z,19.00
2018-07-15T04:34:01.812Z,19.00
2018-07-15T04:36:31.790Z,19.00
2018-07-15T04:39:04.995Z,19.00
2018-07-15T04:41:34.325Z,19.10
2018-07-15T04:44:03.605Z,19.00
2018-07-15T04:46:33.087Z,19.00
2018-07-15T04:49:02.156Z,18.90
2018-07-15T04:51:31.337Z,18.90
2018-07-15T04:54:00.612Z,18.90
2018-07-15T04:56:29.671Z,18.90
2018-07-15T04:58:58.909Z,18.90
2018-07-15T05:01:28.071Z,19.00
2018-07-15T05:03:57.532Z,19.00
2018-07-15T05:06:26.944Z,19.00
2018-07-15T05:08:56.265Z,19.10
2018-07-15T05:11:25.789Z,19.10
2018-07-15T05:13:54.945Z,19.10
2018-07-15T05:16:24.392Z,19.20
2018-07-15T05:18:53.795Z,19.10
2018-07-15T05:23:52.955Z,19.20
2018-07-15T05:26:22.295Z,19.20
2018-07-15T05:28:51.539Z,19.20
2018-07-15T05:31:20.633Z,19.20
2018-07-15T05:33:49.869Z,19.20
2018-07-15T05:36:19.196Z,19.10
2018-07-15T05:38:48.945Z,19.10
2018-07-15T05:41:18.444Z,19.20
2018-07-15T05:43:47.559Z,19.20
2018-07-15T05:46:17.146Z,19.30
2018-07-15T05:48:46.525Z,19.30
2018-07-15T05:51:15.969Z,19.30
2018-07-15T05:53:47.447Z,19.30
2018-07-15T05:56:16.900Z,19.40
2018-07-15T05:58:50.996Z,19.50
2018-07-15T06:01:25.323Z,19.50
2018-07-15T06:03:55.195Z,19.50
2018-07-15T06:06:24.585Z,19.50
2018-07-15T06:08:53.930Z,19.70
2018-07-15T06:11:23.457Z,19.80
2018-07-15T06:16:22.394Z,19.90
2018-07-15T06:18:51.707Z,20.00
2018-07-15T06:21:20.982Z,20.20
2018-07-15T06:23:50.072Z,20.70
2018-07-15T06:26:19.283Z,21.60
2018-07-15T06:28:48.428Z,22.70
2018-07-15T06:31:18.218Z,23.70
2018-07-15T06:33:47.844Z,24.70
2018-07-15T06:36:18.009Z,25.70
2018-07-15T06:38:47.702Z,25.90
2018-07-15T06:41:17.080Z,26.50
2018-07-15T06:43:46.160Z,27.10
2018-07-15T06:46:15.652Z,27.80
2018-07-15T06:48:45.989Z,27.70
2018-07-15T06:51:15.478Z,28.20
2018-07-15T06:53:44.533Z,28.60
2018-07-15T06:56:13.739Z,28.50
2018-07-15T06:58:43.218Z,28.40
2018-07-15T07:01:14.516Z,28.00
2018-07-15T07:03:43.906Z,28.60
2018-07-15T07:06:13.655Z,27.40
2018-07-15T07:08:43.034Z,26.10
2018-07-15T07:11:30.656Z,27.20
2018-07-15T07:16:36.976Z,29.60
2018-07-15T07:19:06.373Z,29.50
2018-07-15T07:21:35.716Z,28.80
2018-07-15T07:24:04.955Z,29.40
2018-07-15T07:26:34.146Z,30.20
2018-07-15T07:29:09.214Z,30.50
2018-07-15T07:31:45.767Z,29.70
2018-07-15T07:34:18.410Z,29.70
2018-07-15T07:36:52.798Z,30.00
2018-07-15T07:39:25.361Z,30.60
2018-07-15T07:41:54.682Z,30.10
2018-07-15T07:44:24.275Z,29.80
2018-07-15T07:49:23.489Z,30.60
2018-07-15T07:51:53.115Z,30.00
2018-07-15T07:54:23.717Z,30.00
2018-07-15T07:56:53.381Z,31.40
2018-07-15T07:59:22.833Z,30.70
2018-07-15T08:01:52.918Z,29.20
2018-07-15T08:06:53.008Z,28.80
2018-07-15T08:09:22.203Z,28.60
2018-07-15T08:11:52.125Z,29.20
2018-07-15T08:14:21.496Z,29.70
2018-07-15T08:16:55.225Z,29.80
2018-07-15T08:19:24.861Z,30.10
2018-07-15T08:21:54.404Z,31.40
2018-07-15T08:24:23.672Z,32.60
2018-07-15T08:26:54.407Z,32.70
2018-07-15T08:29:23.568Z,32.50
2018-07-15T08:31:52.655Z,33.20
2018-07-15T08:34:22.675Z,33.20
2018-07-15T08:36:53.069Z,33.40
2018-07-15T08:39:23.582Z,32.70
2018-07-15T08:41:53.632Z,33.30
2018-07-15T08:44:28.333Z,32.10
2018-07-15T08:49:28.440Z,31.20
2018-07-15T08:51:57.914Z,30.80
2018-07-15T08:54:31.887Z,30.90
2018-07-15T08:57:10.950Z,32.80
2018-07-15T08:59:49.489Z,33.40
2018-07-15T09:02:26.104Z,34.70
2018-07-15T09:04:55.460Z,36.00
2018-07-15T09:07:24.681Z,36.90
2018-07-15T09:09:56.674Z,36.50
2018-07-15T09:12:26.204Z,35.30
2018-07-15T09:14:56.682Z,35.60
2018-07-15T09:17:32.573Z,36.10
2018-07-15T09:20:05.881Z,37.20
2018-07-15T09:22:36.220Z,36.50
2018-07-15T09:25:07.109Z,36.50
2018-07-15T09:27:37.768Z,37.40
2018-07-15T09:30:07.501Z,37.30
2018-07-15T09:32:38.257Z,36.70
2018-07-15T09:35:09.653Z,36.80
2018-07-15T09:37:38.842Z,37.50
2018-07-15T09:40:09.364Z,37.40
2018-07-15T09:43:07.091Z,37.80
2018-07-15T09:48:36.404Z,37.70
2018-07-15T09:51:06.307Z,38.70
2018-07-15T09:53:35.340Z,39.00
2018-07-15T09:56:04.810Z,38.20
2018-07-15T09:58:40.398Z,38.00
2018-07-15T10:01:18.837Z,37.70
2018-07-15T10:03:48.685Z,38.00
2018-07-15T10:06:17.795Z,38.40
2018-07-15T10:08:49.254Z,39.00
2018-07-15T10:11:19.200Z,38.60
2018-07-15T10:13:56.787Z,37.00
2018-07-15T10:19:59.326Z,38.30
2018-07-15T10:22:31.816Z,39.40
2018-07-15T10:25:01.523Z,38.00
2018-07-15T10:27:30.987Z,38.30
2018-07-15T10:30:00.361Z,38.50
2018-07-15T10:32:33.668Z,39.40
2018-07-15T10:35:08.234Z,39.70
2018-07-15T10:37:42.889Z,38.50
2018-07-15T10:40:12.997Z,38.10
2018-07-15T10:42:43.728Z,37.20
2018-07-15T10:45:13.927Z,37.50
2018-07-15T10:47:43.659Z,38.40
2018-07-15T10:52:58.198Z,39.80
2018-07-15T10:55:36.281Z,39.40
2018-07-15T10:58:08.459Z,39.10
2018-07-15T11:00:41.212Z,39.30
2018-07-15T11:03:13.439Z,39.10
2018-07-15T11:05:43.195Z,38.90
2018-07-15T11:08:12.445Z,37.60
2018-07-15T11:10:42.041Z,38.10
2018-07-15T11:13:16.777Z,38.40
2018-07-15T11:18:50.713Z,40.00
2018-07-15T11:21:32.795Z,40.40
2018-07-15T11:24:17.098Z,41.10
2018-07-15T11:27:00.495Z,41.40
2018-07-15T11:29:35.204Z,40.80
2018-07-15T11:32:10.563Z,39.50
2018-07-15T11:34:45.559Z,39.50
2018-07-15T11:37:19.454Z,39.90
2018-07-15T11:39:50.914Z,40.60
2018-07-15T11:42:21.959Z,40.00
2018-07-15T11:44:53.740Z,40.70
2018-07-15T11:47:26.702Z,41.40
2018-07-15T11:50:05.047Z,41.00
2018-07-15T11:52:43.095Z,39.80
2018-07-15T11:55:18.407Z,40.40
2018-07-15T11:57:51.452Z,40.10
2018-07-15T12:00:23.590Z,40.60
2018-07-15T12:02:57.821Z,41.20
2018-07-15T12:05:32.605Z,40.20
2018-07-15T12:08:04.784Z,40.90
2018-07-15T12:10:34.874Z,40.60
2018-07-15T12:13:04.566Z,41.00
2018-07-15T12:15:35.033Z,40.50
2018-07-15T12:18:07.019Z,40.10
2018-07-15T12:20:40.035Z,40.50
2018-07-15T12:23:17.932Z,40.40
2018-07-15T12:25:49.474Z,40.40
2018-07-15T12:28:21.607Z,40.70
2018-07-15T12:30:51.886Z,40.00
2018-07-15T12:33:26.889Z,39.50
2018-07-15T12:36:00.795Z,39.30
2018-07-15T12:38:38.194Z,38.70
2018-07-15T12:41:10.611Z,39.00
2018-07-15T12:46:44.631Z,39.10
2018-07-15T12:49:14.711Z,39.50
2018-07-15T12:54:25.003Z,40.00
2018-07-15T12:57:23.833Z,40.20
2018-07-15T13:00:11.904Z,40.20
2018-07-15T13:02:44.803Z,39.20
2018-07-15T13:05:32.716Z,38.70
2018-07-15T13:08:39.095Z,38.60
2018-07-15T13:11:09.003Z,38.70
2018-07-15T13:13:45.655Z,38.60
2018-07-15T13:16:17.559Z,38.70
2018-07-15T13:18:47.974Z,38.90
2018-07-15T13:21:22.780Z,39.70
2018-07-15T13:23:54.747Z,39.40
2018-07-15T13:26:24.403Z,39.30
2018-07-15T13:28:55.450Z,39.30
2018-07-15T13:31:33.530Z,38.60
2018-07-15T13:34:05.755Z,38.30
2018-07-15T13:36:47.484Z,38.30
2018-07-15T13:39:27.574Z,37.20
2018-07-15T13:41:57.484Z,36.00
2018-07-15T13:44:27.188Z,34.50
2018-07-15T13:46:57.839Z,33.70
2018-07-15T13:49:28.579Z,33.20
2018-07-15T13:52:04.157Z,32.70
2018-07-15T13:54:41.026Z,32.60
2018-07-15T13:57:17.263Z,32.70
2018-07-15T13:59:47.284Z,32.40
2018-07-15T14:02:20.887Z,32.30
2018-07-15T14:04:57.678Z,32.20
2018-07-15T14:08:12.720Z,32.10
2018-07-15T14:10:57.081Z,31.90
2018-07-15T14:13:33.140Z,31.60
2018-07-15T14:19:37.316Z,32.00
2018-07-15T14:22:12.468Z,31.70
2018-07-15T14:24:56.252Z,31.70
2018-07-15T14:27:30.395Z,31.70
2018-07-15T14:30:13.188Z,31.50
2018-07-15T14:32:52.006Z,31.10
2018-07-15T14:35:25.018Z,30.90
2018-07-15T14:38:34.755Z,30.70
2018-07-15T14:41:06.441Z,30.80
2018-07-15T14:43:36.340Z,31.00
2018-07-15T14:46:06.608Z,31.00
2018-07-15T14:48:45.743Z,31.10
2018-07-15T14:51:16.796Z,30.70
2018-07-15T14:53:55.512Z,30.60
2018-07-15T14:57:04.802Z,30.40
2018-07-15T14:59:59.494Z,30.40
2018-07-15T15:02:41.397Z,30.50
2018-07-15T15:05:22.849Z,30.70
2018-07-15T15:08:14.068Z,31.00
2018-07-15T15:13:59.630Z,30.70
2018-07-15T15:16:43.806Z,30.60
2018-07-15T15:19:22.310Z,30.60
2018-07-15T15:22:03.192Z,30.40
2018-07-15T15:24:46.200Z,30.40
2018-07-15T15:27:21.202Z,30.60
2018-07-15T15:36:07.099Z,30.50
2018-07-15T15:42:11.534Z,30.40
2018-07-15T15:44:59.992Z,30.30
2018-07-15T15:47:32.893Z,30.20
2018-07-15T15:50:40.356Z,30.30
2018-07-15T16:03:48.330Z,30.00
2018-07-15T16:06:53.568Z,30.10
2018-07-15T16:12:21.084Z,30.00
2018-07-15T16:23:29.183Z,30.10
2018-07-15T16:29:14.279Z,30.10
2018-07-15T16:32:14.775Z,29.80
2018-07-15T16:37:59.258Z,29.80
2018-07-15T16:40:46.487Z,30.00
2018-07-15T16:43:33.429Z,30.00
2018-07-15T16:52:26.844Z,30.30
2018-07-15T16:55:25.088Z,30.30
2018-07-15T16:59:19.520Z,30.20
2018-07-15T17:05:08.476Z,30.20
2018-07-15T17:13:33.836Z,29.70
2018-07-15T17:16:13.598Z,29.70
2018-07-15T17:22:42.711Z,29.70
2018-07-15T17:25:30.049Z,29.50
2018-07-15T17:28:10.682Z,29.50
2018-07-15T17:30:40.569Z,29.40
2018-07-15T17:33:10.741Z,29.30
2018-07-15T17:35:40.180Z,29.30
2018-07-15T17:38:13.042Z,29.30
2018-07-15T17:40:49.626Z,29.10
2018-07-15T17:43:19.821Z,29.10
2018-07-15T17:45:51.443Z,29.10
2018-07-15T17:50:52.803Z,28.80
2018-07-15T17:53:23.205Z,28.70
2018-07-15T17:55:57.080Z,28.60
2018-07-15T17:58:28.859Z,28.60
2018-07-15T18:01:00.786Z,28.60
2018-07-15T18:06:28.473Z,28.60
2018-07-15T18:09:26.023Z,28.60
2018-07-15T18:12:18.140Z,28.60
2018-07-15T18:14:52.317Z,28.60
2018-07-15T18:17:23.498Z,28.60
2018-07-15T18:19:54.210Z,28.50
2018-07-15T18:22:27.392Z,28.50
2018-07-15T18:25:03.427Z,28.50
2018-07-15T18:27:34.439Z,28.30
2018-07-15T18:30:04.217Z,28.20
2018-07-15T18:32:34.993Z,28.10
2018-07-15T18:35:06.346Z,28.10
2018-07-15T18:37:37.737Z,28.00
2018-07-15T18:40:10.780Z,28.00
2018-07-15T18:42:42.751Z,28.00
2018-07-15T18:45:14.556Z,28.00
2018-07-15T18:47:44.362Z,28.00
2018-07-15T18:50:19.227Z,28.00
2018-07-15T18:52:51.204Z,27.90
2018-07-15T18:58:34.763Z,27.80
2018-07-15T19:01:05.288Z,27.70
2018-07-15T19:03:35.466Z,27.70
2018-07-15T19:06:09.471Z,27.60
2018-07-15T19:08:41.285Z,27.60
2018-07-15T19:11:10.271Z,27.50
2018-07-15T19:16:26.425Z,27.50
2018-07-15T19:19:07.763Z,27.40
2018-07-15T19:24:24.267Z,27.20
2018-07-15T19:31:09.080Z,27.10
2018-07-15T19:34:03.129Z,27.00
2018-07-15T19:37:05.860Z,27.00
2018-07-15T19:40:11.775Z,26.90
2018-07-15T19:42:55.136Z,26.80
2018-07-15T19:45:43.731Z,26.70
2018-07-15T19:48:36.281Z,26.70
2018-07-15T19:51:28.803Z,26.70
2018-07-15T19:54:17.108Z,26.70
2018-07-15T19:57:10.500Z,26.60
2018-07-15T20:02:59.080Z,26.50
2018-07-15T20:05:47.327Z,26.40
2018-07-15T20:08:20.715Z,26.30
2018-07-15T20:13:30.318Z,26.30
2018-07-15T20:16:29.075Z,26.40
2018-07-15T20:19:06.763Z,26.40
2018-07-15T20:21:52.309Z,26.50
2018-07-15T20:24:41.315Z,26.50
2018-07-15T20:27:16.196Z,26.50
2018-07-15T20:29:45.790Z,26.50
2018-07-15T20:32:19.333Z,26.60
2018-07-15T20:34:56.658Z,26.60
2018-07-15T20:37:32.795Z,26.50
2018-07-15T20:40:04.759Z,26.50
2018-07-15T20:42:56.902Z,26.50
2018-07-15T20:45:44.577Z,26.50
2018-07-15T20:48:22.773Z,26.50
2018-07-15T20:51:11.560Z,26.40
2018-07-15T20:53:59.924Z,26.40
2018-07-15T20:57:09.851Z,26.30
2018-07-15T21:00:01.106Z,26.20
2018-07-15T21:02:52.539Z,26.20
2018-07-15T21:05:48.201Z,26.20
2018-07-15T21:08:45.076Z,26.30
2018-07-15T21:13:58.944Z,26.10
2018-07-15T21:16:34.449Z,26.10
2018-07-15T21:19:15.934Z,25.90
2018-07-15T21:22:01.724Z,26.00
2018-07-15T21:24:32.202Z,26.00
2018-07-15T21:27:12.164Z,26.10
2018-07-15T21:29:45.822Z,26.10
2018-07-15T21:32:18.845Z,26.00
2018-07-15T21:34:52.849Z,26.00
2018-07-15T21:37:23.407Z,25.90
2018-07-15T21:39:58.811Z,26.00
2018-07-15T21:42:28.812Z,26.00
2018-07-15T21:45:00.089Z,25.90
2018-07-15T21:47:32.545Z,25.70
2018-07-15T21:50:05.147Z,25.70
2018-07-15T21:52:37.169Z,25.50
2018-07-15T21:55:11.358Z,25.50
2018-07-15T21:57:41.003Z,25.30
2018-07-15T22:00:12.620Z,25.30
2018-07-15T22:02:45.688Z,25.30
2018-07-15T22:05:16.796Z,25.20
2018-07-15T22:07:57.937Z,25.20
2018-07-15T22:10:46.856Z,25.20
2018-07-15T22:13:20.038Z,25.00
2018-07-15T22:15:52.226Z,24.90
2018-07-15T22:18:23.945Z,24.90
2018-07-15T22:20:53.757Z,24.90
2018-07-15T22:23:26.619Z,24.90
2018-07-15T22:25:58.888Z,24.90
2018-07-15T22:28:32.826Z,24.90
2018-07-15T22:31:12.393Z,24.80
2018-07-15T22:33:48.893Z,24.80
2018-07-15T22:36:19.463Z,24.70
2018-07-15T22:38:48.744Z,24.60
2018-07-15T22:41:19.840Z,24.40
2018-07-15T22:43:58.828Z,24.20
2018-07-15T22:46:28.724Z,24.10
2018-07-15T22:49:08.483Z,23.90
2018-07-15T22:51:39.721Z,23.80
2018-07-15T22:54:10.464Z,23.80
2018-07-15T22:56:43.337Z,23.70
2018-07-15T22:59:13.745Z,23.60
2018-07-15T23:01:44.167Z,23.50
2018-07-15T23:04:13.561Z,23.40
2018-07-15T23:09:23.872Z,23.20
2018-07-15T23:12:11.093Z,23.10
2018-07-15T23:14:42.013Z,23.00
2018-07-15T23:17:20.486Z,23.00
2018-07-15T23:19:49.970Z,23.00
2018-07-15T23:22:19.149Z,23.00
2018-07-15T23:24:53.719Z,23.00
2018-07-15T23:27:23.032Z,22.90
2018-07-15T23:29:52.927Z,22.80
2018-07-15T23:32:24.099Z,22.80
2018-07-15T23:34:52.996Z,22.70
2018-07-15T23:37:22.668Z,22.70
2018-07-15T23:39:51.747Z,22.50
2018-07-15T23:42:20.908Z,22.50
2018-07-15T23:47:19.003Z,22.40
2018-07-15T23:49:48.788Z,22.40
2018-07-15T23:52:17.958Z,22.30
2018-07-15T23:54:46.823Z,22.20
2018-07-15T23:57:21.280Z,22.10
2018-07-15T23:59:50.656Z,22.10
